sensor_id;sensor_type;location;lat;lon;timestamp;pressure;altitude;pressure_sealevel;temperature;humidity
21109;BME280;10712;52.944;9.098;2023-03-31T00:02:04;100232.75;;;18.67;54.50
21109;BME280;10712;52.944;9.098;2023-03-31T00:04:42;100230.47;;;18.72;54.35
21109;BME280;10712;52.944;9.098;2023-03-31T00:07:18;100224.06;;;18.73;54.68
21109;BME280;10712;52.944;9.098;2023-03-31T00:09:48;100230.22;;;18.83;54.58
21109;BME280;10712;52.944;9.098;2023-03-31T00:12:15;100223.47;;;18.79;54.63
21109;BME280;10712;52.944;9.098;2023-03-31T00:14:42;100222.47;;;18.80;54.91
21109;BME280;10712;52.944;9.098;2023-03-31T00:17:09;100212.34;;;18.82;55.00
21109;BME280;10712;52.944;9.098;2023-03-31T00:19:36;100206.31;;;18.88;55.07
21109;BME280;10712;52.944;9.098;2023-03-31T00:22:02;100205.63;;;18.86;55.12
21109;BME280;10712;52.944;9.098;2023-03-31T00:24:30;100207.16;;;18.89;55.13
21109;BME280;10712;52.944;9.098;2023-03-31T00:27:06;100201.34;;;19.02;55.35
21109;BME280;10712;52.944;9.098;2023-03-31T00:29:32;100200.06;;;19.06;55.33
21109;BME280;10712;52.944;9.098;2023-03-31T00:32:00;100197.72;;;19.11;55.38
21109;BME280;10712;52.944;9.098;2023-03-31T00:34:27;100191.41;;;19.02;55.42
21109;BME280;10712;52.944;9.098;2023-03-31T00:36:53;100194.28;;;19.01;55.57
21109;BME280;10712;52.944;9.098;2023-03-31T00:39:21;100187.19;;;19.00;55.58
21109;BME280;10712;52.944;9.098;2023-03-31T00:41:49;100185.41;;;19.08;55.60
21109;BME280;10712;52.944;9.098;2023-03-31T00:47:12;100180.16;;;19.07;55.44
21109;BME280;10712;52.944;9.098;2023-03-31T00:49:46;100168.03;;;19.11;55.49
21109;BME280;10712;52.944;9.098;2023-03-31T00:52:18;100161.25;;;19.07;55.66
21109;BME280;10712;52.944;9.098;2023-03-31T00:54:57;100158.72;;;19.05;55.53
21109;BME280;10712;52.944;9.098;2023-03-31T00:57:25;100161.09;;;19.08;55.55
21109;BME280;10712;52.944;9.098;2023-03-31T01:00:00;100150.75;;;19.04;55.89
21109;BME280;10712;52.944;9.098;2023-03-31T01:02:32;100149.59;;;19.06;55.44
21109;BME280;10712;52.944;9.098;2023-03-31T01:04:59;100147.59;;;19.08;55.37
21109;BME280;10712;52.944;9.098;2023-03-31T01:07:43;100150.25;;;19.00;55.63
21109;BME280;10712;52.944;9.098;2023-03-31T01:10:11;100144.00;;;19.00;55.59
21109;BME280;10712;52.944;9.098;2023-03-31T01:12:41;100132.22;;;19.09;55.25
21109;BME280;10712;52.944;9.098;2023-03-31T01:15:09;100129.16;;;19.04;55.40
21109;BME280;10712;52.944;9.098;2023-03-31T01:17:36;100121.69;;;18.98;55.37
21109;BME280;10712;52.944;9.098;2023-03-31T01:41:05;100085.75;;;18.97;55.15
21109;BME280;10712;52.944;9.098;2023-03-31T01:46:53;100071.75;;;18.94;55.14
21109;BME280;10712;52.944;9.098;2023-03-31T01:52:52;100069.06;;;18.94;55.19
21109;BME280;10712;52.944;9.098;2023-03-31T01:55:37;100071.91;;;18.92;55.36
21109;BME280;10712;52.944;9.098;2023-03-31T01:58:15;100062.97;;;18.92;55.27
21109;BME280;10712;52.944;9.098;2023-03-31T02:00:53;100052.84;;;18.94;55.21
21109;BME280;10712;52.944;9.098;2023-03-31T02:03:32;100048.63;;;18.91;55.17
21109;BME280;10712;52.944;9.098;2023-03-31T02:06:16;100049.16;;;18.95;55.13
21109;BME280;10712;52.944;9.098;2023-03-31T02:08:52;100041.84;;;18.87;55.32
21109;BME280;10712;52.944;9.098;2023-03-31T02:11:20;100041.84;;;18.87;55.20
21109;BME280;10712;52.944;9.098;2023-03-31T02:13:50;100028.16;;;18.88;55.16
21109;BME280;10712;52.944;9.098;2023-03-31T02:16:24;100021.13;;;18.87;55.20
21109;BME280;10712;52.944;9.098;2023-03-31T02:18:55;100027.50;;;18.86;55.07
21109;BME280;10712;52.944;9.098;2023-03-31T02:21:31;100026.53;;;18.96;54.78
21109;BME280;10712;52.944;9.098;2023-03-31T02:24:01;100029.88;;;18.89;54.92
21109;BME280;10712;52.944;9.098;2023-03-31T02:26:37;100034.59;;;18.87;54.87
21109;BME280;10712;52.944;9.098;2023-03-31T02:29:06;100038.47;;;18.85;55.13
21109;BME280;10712;52.944;9.098;2023-03-31T02:32:01;100031.91;;;18.87;55.01
21109;BME280;10712;52.944;9.098;2023-03-31T02:34:30;100037.59;;;18.84;55.28
21109;BME280;10712;52.944;9.098;2023-03-31T02:36:57;100028.50;;;18.85;55.07
21109;BME280;10712;52.944;9.098;2023-03-31T02:39:30;100019.06;;;18.89;55.06
21109;BME280;10712;52.944;9.098;2023-03-31T02:41:58;100020.13;;;18.97;54.88
21109;BME280;10712;52.944;9.098;2023-03-31T02:44:25;100015.28;;;19.00;54.87
21109;BME280;10712;52.944;9.098;2023-03-31T02:46:52;100004.94;;;18.96;55.09
21109;BME280;10712;52.944;9.098;2023-03-31T02:49:20;100002.03;;;18.89;55.05
21109;BME280;10712;52.944;9.098;2023-03-31T02:52:32;100009.63;;;18.85;55.36
21109;BME280;10712;52.944;9.098;2023-03-31T03:01:24;99989.22;;;18.91;55.22
21109;BME280;10712;52.944;9.098;2023-03-31T03:06:46;99979.78;;;18.95;54.78
21109;BME280;10712;52.944;9.098;2023-03-31T03:10:00;99985.34;;;18.85;55.05
21109;BME280;10712;52.944;9.098;2023-03-31T03:12:35;99978.72;;;18.80;55.28
21109;BME280;10712;52.944;9.098;2023-03-31T03:15:13;99982.47;;;18.87;55.08
21109;BME280;10712;52.944;9.098;2023-03-31T03:17:46;99982.78;;;18.84;55.05
21109;BME280;10712;52.944;9.098;2023-03-31T03:20:14;99973.50;;;18.78;55.23
21109;BME280;10712;52.944;9.098;2023-03-31T03:22:41;99969.44;;;18.82;55.02
21109;BME280;10712;52.944;9.098;2023-03-31T03:25:11;99961.00;;;18.77;55.11
21109;BME280;10712;52.944;9.098;2023-03-31T03:27:38;99964.06;;;18.82;55.09
21109;BME280;10712;52.944;9.098;2023-03-31T03:30:10;99953.63;;;18.87;54.86
21109;BME280;10712;52.944;9.098;2023-03-31T03:32:36;99958.00;;;18.80;55.01
21109;BME280;10712;52.944;9.098;2023-03-31T03:35:05;99948.41;;;18.86;54.89
21109;BME280;10712;52.944;9.098;2023-03-31T03:37:32;99951.56;;;18.81;54.85
21109;BME280;10712;52.944;9.098;2023-03-31T03:39:58;99947.50;;;18.77;55.00
21109;BME280;10712;52.944;9.098;2023-03-31T03:42:24;99944.81;;;18.77;54.93
21109;BME280;10712;52.944;9.098;2023-03-31T03:44:49;99941.41;;;18.75;54.92
21109;BME280;10712;52.944;9.098;2023-03-31T03:47:15;99949.50;;;18.75;54.90
21109;BME280;10712;52.944;9.098;2023-03-31T03:49:41;99935.72;;;18.78;54.69
21109;BME280;10712;52.944;9.098;2023-03-31T03:52:07;99927.41;;;18.72;54.69
21109;BME280;10712;52.944;9.098;2023-03-31T03:54:33;99932.00;;;18.79;54.48
21109;BME280;10712;52.944;9.098;2023-03-31T03:56:59;99929.25;;;18.71;54.87
21109;BME280;10712;52.944;9.098;2023-03-31T03:59:24;99914.06;;;18.70;54.85
21109;BME280;10712;52.944;9.098;2023-03-31T04:01:50;99921.88;;;18.73;54.85
21109;BME280;10712;52.944;9.098;2023-03-31T04:04:17;99913.06;;;18.71;54.79
21109;BME280;10712;52.944;9.098;2023-03-31T04:06:43;99903.47;;;18.77;54.45
21109;BME280;10712;52.944;9.098;2023-03-31T04:09:09;99899.44;;;18.73;54.61
21109;BME280;10712;52.944;9.098;2023-03-31T04:11:35;99897.88;;;18.70;54.50
21109;BME280;10712;52.944;9.098;2023-03-31T04:14:01;99898.03;;;18.69;54.61
21109;BME280;10712;52.944;9.098;2023-03-31T04:16:27;99895.50;;;18.67;54.43
21109;BME280;10712;52.944;9.098;2023-03-31T04:18:53;99886.41;;;18.68;54.66
21109;BME280;10712;52.944;9.098;2023-03-31T04:21:24;99875.56;;;18.60;54.62
21109;BME280;10712;52.944;9.098;2023-03-31T04:23:53;99865.28;;;18.56;54.68
21109;BME280;10712;52.944;9.098;2023-03-31T04:26:33;99868.94;;;18.55;54.37
21109;BME280;10712;52.944;9.098;2023-03-31T04:29:10;99857.66;;;18.51;54.30
21109;BME280;10712;52.944;9.098;2023-03-31T04:31:38;99847.16;;;18.48;54.42
21109;BME280;10712;52.944;9.098;2023-03-31T04:34:08;99848.34;;;18.45;54.44
21109;BME280;10712;52.944;9.098;2023-03-31T04:36:40;99836.03;;;18.43;54.14
21109;BME280;10712;52.944;9.098;2023-03-31T04:39:08;99836.69;;;18.37;54.34
21109;BME280;10712;52.944;9.098;2023-03-31T04:41:37;99830.94;;;18.32;54.35
21109;BME280;10712;52.944;9.098;2023-03-31T04:44:03;99822.00;;;18.31;54.21
21109;BME280;10712;52.944;9.098;2023-03-31T04:46:28;99818.44;;;18.31;54.24
21109;BME280;10712;52.944;9.098;2023-03-31T04:48:54;99811.69;;;18.27;54.27
21109;BME280;10712;52.944;9.098;2023-03-31T04:51:20;99804.94;;;18.23;54.33
21109;BME280;10712;52.944;9.098;2023-03-31T04:53:46;99798.53;;;18.24;54.21
21109;BME280;10712;52.944;9.098;2023-03-31T04:56:12;99789.75;;;18.22;54.31
21109;BME280;10712;52.944;9.098;2023-03-31T04:58:38;99791.25;;;18.16;54.37
21109;BME280;10712;52.944;9.098;2023-03-31T05:01:04;99779.94;;;18.13;54.36
21109;BME280;10712;52.944;9.098;2023-03-31T05:03:33;99777.56;;;18.09;54.44
21109;BME280;10712;52.944;9.098;2023-03-31T05:06:00;99777.56;;;18.09;54.47
21109;BME280;10712;52.944;9.098;2023-03-31T05:08:26;99776.59;;;18.19;54.31
21109;BME280;10712;52.944;9.098;2023-03-31T05:10:53;99776.22;;;18.14;54.43
21109;BME280;10712;52.944;9.098;2023-03-31T05:13:18;99774.72;;;18.11;54.49
21109;BME280;10712;52.944;9.098;2023-03-31T05:15:44;99766.44;;;18.13;54.57
21109;BME280;10712;52.944;9.098;2023-03-31T05:18:12;99763.09;;;18.10;54.54
21109;BME280;10712;52.944;9.098;2023-03-31T05:20:38;99760.41;;;18.10;54.66
21109;BME280;10712;52.944;9.098;2023-03-31T05:23:04;99761.41;;;18.09;54.61
21109;BME280;10712;52.944;9.098;2023-03-31T05:25:29;99765.78;;;18.10;54.49
21109;BME280;10712;52.944;9.098;2023-03-31T05:27:58;99755.66;;;18.13;54.65
21109;BME280;10712;52.944;9.098;2023-03-31T05:30:25;99748.94;;;18.08;54.80
21109;BME280;10712;52.944;9.098;2023-03-31T05:32:52;99737.84;;;18.12;54.63
21109;BME280;10712;52.944;9.098;2023-03-31T05:35:18;99736.16;;;18.10;54.70
21109;BME280;10712;52.944;9.098;2023-03-31T05:37:44;99735.50;;;18.17;54.92
21109;BME280;10712;52.944;9.098;2023-03-31T05:40:10;99742.56;;;18.18;54.78
21109;BME280;10712;52.944;9.098;2023-03-31T05:42:37;99738.53;;;18.22;54.70
21109;BME280;10712;52.944;9.098;2023-03-31T05:45:04;99734.47;;;18.18;54.98
21109;BME280;10712;52.944;9.098;2023-03-31T05:47:30;99735.03;;;18.29;54.98
21109;BME280;10712;52.944;9.098;2023-03-31T05:49:57;99734.50;;;18.26;55.06
21109;BME280;10712;52.944;9.098;2023-03-31T05:52:23;99740.91;;;18.33;55.14
21109;BME280;10712;52.944;9.098;2023-03-31T05:54:48;99738.22;;;18.33;55.16
21109;BME280;10712;52.944;9.098;2023-03-31T05:57:15;99732.16;;;18.31;55.25
21109;BME280;10712;52.944;9.098;2023-03-31T05:59:40;99735.88;;;18.30;55.37
21109;BME280;10712;52.944;9.098;2023-03-31T06:02:09;99723.75;;;18.34;55.34
21109;BME280;10712;52.944;9.098;2023-03-31T06:04:36;99725.47;;;18.43;55.40
21109;BME280;10712;52.944;9.098;2023-03-31T06:07:03;99724.75;;;18.33;55.49
21109;BME280;10712;52.944;9.098;2023-03-31T06:09:30;99723.44;;;18.37;55.84
21109;BME280;10712;52.944;9.098;2023-03-31T06:11:55;99717.00;;;18.30;55.88
21109;BME280;10712;52.944;9.098;2023-03-31T06:14:22;99712.63;;;18.37;55.97
21109;BME280;10712;52.944;9.098;2023-03-31T06:16:47;99705.56;;;18.36;56.13
21109;BME280;10712;52.944;9.098;2023-03-31T06:19:14;99702.16;;;18.34;56.04
21109;BME280;10712;52.944;9.098;2023-03-31T06:21:40;99698.13;;;18.30;56.34
21109;BME280;10712;52.944;9.098;2023-03-31T06:24:08;99688.03;;;18.40;56.17
21109;BME280;10712;52.944;9.098;2023-03-31T06:26:35;99687.69;;;18.35;56.43
21109;BME280;10712;52.944;9.098;2023-03-31T06:29:00;99679.94;;;18.32;56.41
21109;BME280;10712;52.944;9.098;2023-03-31T06:31:26;99682.97;;;18.37;56.46
21109;BME280;10712;52.944;9.098;2023-03-31T06:33:52;99685.31;;;18.40;56.41
21109;BME280;10712;52.944;9.098;2023-03-31T06:36:21;99682.44;;;18.33;56.50
21109;BME280;10712;52.944;9.098;2023-03-31T06:38:48;99686.00;;;18.34;56.82
21109;BME280;10712;52.944;9.098;2023-03-31T06:41:17;99688.03;;;18.40;56.63
21109;BME280;10712;52.944;9.098;2023-03-31T06:43:43;99687.03;;;18.49;56.55
21109;BME280;10712;52.944;9.098;2023-03-31T06:46:09;99690.44;;;18.51;56.52
21109;BME280;10712;52.944;9.098;2023-03-31T06:48:35;99676.31;;;18.65;56.26
21109;BME280;10712;52.944;9.098;2023-03-31T06:51:04;99685.34;;;18.48;56.85
21109;BME280;10712;52.944;9.098;2023-03-31T06:53:31;99677.25;;;18.40;57.13
21109;BME280;10712;52.944;9.098;2023-03-31T06:55:57;99673.72;;;18.47;56.81
21109;BME280;10712;52.944;9.098;2023-03-31T06:58:23;99678.94;;;18.41;57.28
21109;BME280;10712;52.944;9.098;2023-03-31T07:00:49;99677.25;;;18.48;57.35
21109;BME280;10712;52.944;9.098;2023-03-31T07:03:15;99669.69;;;18.52;57.20
21109;BME280;10712;52.944;9.098;2023-03-31T07:05:48;99666.81;;;18.45;57.38
21109;BME280;10712;52.944;9.098;2023-03-31T07:08:15;99660.75;;;18.43;57.59
21109;BME280;10712;52.944;9.098;2023-03-31T07:10:42;99655.06;;;18.62;57.24
21109;BME280;10712;52.944;9.098;2023-03-31T07:13:12;99654.34;;;18.52;57.69
21109;BME280;10712;52.944;9.098;2023-03-31T07:15:38;99654.34;;;18.52;57.65
21109;BME280;10712;52.944;9.098;2023-03-31T07:18:04;99649.97;;;18.51;57.76
21109;BME280;10712;52.944;9.098;2023-03-31T07:20:30;99651.88;;;18.67;57.54
21109;BME280;10712;52.944;9.098;2023-03-31T07:22:57;99649.00;;;18.68;57.50
21109;BME280;10712;52.944;9.098;2023-03-31T07:25:23;99636.88;;;18.64;57.60
21109;BME280;10712;52.944;9.098;2023-03-31T07:27:49;99636.19;;;18.70;57.61
21109;BME280;10712;52.944;9.098;2023-03-31T07:30:18;99633.84;;;18.59;57.94
21109;BME280;10712;52.944;9.098;2023-03-31T07:32:49;99640.25;;;18.66;58.03
21109;BME280;10712;52.944;9.098;2023-03-31T07:35:16;99629.63;;;18.65;58.16
21109;BME280;10712;52.944;9.098;2023-03-31T07:37:46;99630.94;;;18.69;58.26
21109;BME280;10712;52.944;9.098;2023-03-31T07:40:20;99626.41;;;18.69;58.26
21109;BME280;10712;52.944;9.098;2023-03-31T07:42:46;99626.41;;;18.69;58.44
21109;BME280;10712;52.944;9.098;2023-03-31T07:45:15;99625.41;;;18.70;58.38
21109;BME280;10712;52.944;9.098;2023-03-31T07:47:42;99610.06;;;18.71;58.37
21109;BME280;10712;52.944;9.098;2023-03-31T07:50:09;99623.38;;;18.80;58.31
21109;BME280;10712;52.944;9.098;2023-03-31T07:52:35;99613.94;;;18.76;58.53
21109;BME280;10712;52.944;9.098;2023-03-31T07:55:01;99609.03;;;18.72;58.51
21109;BME280;10712;52.944;9.098;2023-03-31T07:57:28;99604.13;;;18.83;58.43
21109;BME280;10712;52.944;9.098;2023-03-31T07:59:53;99604.97;;;18.84;58.41
21109;BME280;10712;52.944;9.098;2023-03-31T08:02:19;99598.06;;;18.81;58.35
21109;BME280;10712;52.944;9.098;2023-03-31T08:04:46;99599.75;;;18.74;58.57
21109;BME280;10712;52.944;9.098;2023-03-31T08:07:14;99591.50;;;18.92;58.18
21109;BME280;10712;52.944;9.098;2023-03-31T08:09:44;99587.63;;;18.86;58.24
21109;BME280;10712;52.944;9.098;2023-03-31T08:12:10;99583.06;;;18.87;58.25
21109;BME280;10712;52.944;9.098;2023-03-31T08:14:37;99578.16;;;18.82;58.39
21109;BME280;10712;52.944;9.098;2023-03-31T08:17:03;99580.34;;;18.95;57.95
21109;BME280;10712;52.944;9.098;2023-03-31T08:19:29;99575.13;;;18.85;58.26
21109;BME280;10712;52.944;9.098;2023-03-31T08:21:55;99564.66;;;18.82;58.37
21109;BME280;10712;52.944;9.098;2023-03-31T08:24:21;99560.28;;;18.81;58.44
21109;BME280;10712;52.944;9.098;2023-03-31T08:26:47;99558.94;;;18.85;58.53
21109;BME280;10712;52.944;9.098;2023-03-31T08:29:13;99551.53;;;18.87;58.35
21109;BME280;10712;52.944;9.098;2023-03-31T08:31:39;99550.50;;;18.88;58.52
21109;BME280;10712;52.944;9.098;2023-03-31T08:34:05;99548.47;;;18.99;58.45
21109;BME280;10712;52.944;9.098;2023-03-31T08:36:32;99541.88;;;19.01;58.41
21109;BME280;10712;52.944;9.098;2023-03-31T08:38:58;99547.78;;;19.05;58.39
21109;BME280;10712;52.944;9.098;2023-03-31T08:44:28;99529.88;;;19.04;58.76
21109;BME280;10712;52.944;9.098;2023-03-31T08:46:58;99536.63;;;19.08;58.49
21109;BME280;10712;52.944;9.098;2023-03-31T08:49:32;99525.00;;;19.07;58.55
21109;BME280;10712;52.944;9.098;2023-03-31T08:52:09;99521.09;;;19.10;58.82
21109;BME280;10712;52.944;9.098;2023-03-31T08:54:43;99523.44;;;19.13;58.69
21109;BME280;10712;52.944;9.098;2023-03-31T08:57:39;99513.34;;;19.15;58.76
21109;BME280;10712;52.944;9.098;2023-03-31T09:00:16;99512.66;;;19.13;58.62
21109;BME280;10712;52.944;9.098;2023-03-31T09:02:53;99495.25;;;19.15;58.88
21109;BME280;10712;52.944;9.098;2023-03-31T09:05:38;99493.59;;;19.14;58.84
21109;BME280;10712;52.944;9.098;2023-03-31T09:08:40;99494.44;;;19.15;58.69
21109;BME280;10712;52.944;9.098;2023-03-31T09:11:26;99484.44;;;19.15;58.87
21109;BME280;10712;52.944;9.098;2023-03-31T09:14:24;99483.28;;;19.18;58.67
21109;BME280;10712;52.944;9.098;2023-03-31T09:22:02;99481.56;;;19.25;58.38
21109;BME280;10712;52.944;9.098;2023-03-31T09:24:37;99471.75;;;19.24;58.72
21109;BME280;10712;52.944;9.098;2023-03-31T09:27:11;99464.50;;;19.24;58.64
21109;BME280;10712;52.944;9.098;2023-03-31T09:29:52;99467.06;;;19.18;58.74
21109;BME280;10712;52.944;9.098;2023-03-31T09:32:27;99463.84;;;19.22;58.64
21109;BME280;10712;52.944;9.098;2023-03-31T09:35:20;99450.53;;;19.21;58.79
21109;BME280;10712;52.944;9.098;2023-03-31T09:37:47;99466.38;;;19.24;58.66
21109;BME280;10712;52.944;9.098;2023-03-31T09:40:21;99455.56;;;19.24;58.55
21109;BME280;10712;52.944;9.098;2023-03-31T09:43:03;99445.59;;;19.24;58.80
21109;BME280;10712;52.944;9.098;2023-03-31T09:45:31;99448.28;;;19.33;58.48
21109;BME280;10712;52.944;9.098;2023-03-31T09:48:09;99450.63;;;19.36;58.26
21109;BME280;10712;52.944;9.098;2023-03-31T09:50:45;99438.66;;;19.30;58.69
21109;BME280;10712;52.944;9.098;2023-03-31T09:53:49;99438.66;;;19.30;58.41
21109;BME280;10712;52.944;9.098;2023-03-31T09:56:12;99433.25;;;19.30;58.74
21109;BME280;10712;52.944;9.098;2023-03-31T09:58:45;99430.03;;;19.35;58.53
21109;BME280;10712;52.944;9.098;2023-03-31T10:01:13;99429.78;;;19.44;58.66
21109;BME280;10712;52.944;9.098;2023-03-31T10:03:52;99431.47;;;19.53;58.58
21109;BME280;10712;52.944;9.098;2023-03-31T10:06:20;99417.63;;;19.56;58.60
21109;BME280;10712;52.944;9.098;2023-03-31T10:08:56;99411.72;;;19.53;58.78
21109;BME280;10712;52.944;9.098;2023-03-31T10:11:23;99409.63;;;19.63;58.60
21109;BME280;10712;52.944;9.098;2023-03-31T10:14:01;99405.38;;;19.69;58.53
21109;BME280;10712;52.944;9.098;2023-03-31T10:16:34;99406.22;;;19.69;58.37
21109;BME280;10712;52.944;9.098;2023-03-31T10:19:24;99403.34;;;19.71;58.51
21109;BME280;10712;52.944;9.098;2023-03-31T10:22:16;99402.63;;;19.77;58.57
21109;BME280;10712;52.944;9.098;2023-03-31T10:24:52;99402.84;;;19.90;58.33
21109;BME280;10712;52.944;9.098;2023-03-31T10:27:31;99404.16;;;19.94;58.21
21109;BME280;10712;52.944;9.098;2023-03-31T10:30:03;99398.00;;;20.00;57.57
21109;BME280;10712;52.944;9.098;2023-03-31T10:32:38;99401.44;;;19.94;57.76
21109;BME280;10712;52.944;9.098;2023-03-31T10:35:21;99400.06;;;19.98;57.69
21109;BME280;10712;52.944;9.098;2023-03-31T10:37:54;99393.34;;;19.94;57.76
21109;BME280;10712;52.944;9.098;2023-03-31T10:40:25;99393.16;;;19.95;57.44
21109;BME280;10712;52.944;9.098;2023-03-31T10:43:16;99387.47;;;19.90;57.29
21109;BME280;10712;52.944;9.098;2023-03-31T10:45:52;99383.91;;;19.90;57.53
21109;BME280;10712;52.944;9.098;2023-03-31T10:48:25;99379.16;;;19.92;57.43
21109;BME280;10712;52.944;9.098;2023-03-31T10:50:53;99383.47;;;20.01;56.98
21109;BME280;10712;52.944;9.098;2023-03-31T10:53:19;99371.72;;;19.94;57.34
21109;BME280;10712;52.944;9.098;2023-03-31T10:56:02;99385.41;;;19.92;57.09
21109;BME280;10712;52.944;9.098;2023-03-31T11:01:57;99380.38;;;19.89;56.92
21109;BME280;10712;52.944;9.098;2023-03-31T11:10:33;99377.31;;;20.07;54.57
21109;BME280;10712;52.944;9.098;2023-03-31T11:13:25;99369.06;;;19.86;55.34
21109;BME280;10712;52.944;9.098;2023-03-31T11:19:05;99374.69;;;19.99;55.60
21109;BME280;10712;52.944;9.098;2023-03-31T11:22:24;99363.88;;;19.99;55.22
21109;BME280;10712;52.944;9.098;2023-03-31T11:28:24;99358.25;;;20.23;55.27
21109;BME280;10712;52.944;9.098;2023-03-31T11:31:24;99357.31;;;20.31;55.08
21109;BME280;10712;52.944;9.098;2023-03-31T11:34:35;99350.81;;;20.40;55.07
21109;BME280;10712;52.944;9.098;2023-03-31T11:43:14;99349.41;;;20.88;54.27
21109;BME280;10712;52.944;9.098;2023-03-31T11:45:51;99350.31;;;20.95;53.82
21109;BME280;10712;52.944;9.098;2023-03-31T11:48:35;99352.53;;;21.06;52.28
21109;BME280;10712;52.944;9.098;2023-03-31T11:51:10;99341.03;;;21.04;51.48
21109;BME280;10712;52.944;9.098;2023-03-31T11:53:41;99343.00;;;21.10;51.32
21109;BME280;10712;52.944;9.098;2023-03-31T11:56:10;99347.31;;;21.19;50.38
21109;BME280;10712;52.944;9.098;2023-03-31T11:58:53;99338.03;;;21.14;49.40
21109;BME280;10712;52.944;9.098;2023-03-31T12:01:49;99350.00;;;21.05;49.77
21109;BME280;10712;52.944;9.098;2023-03-31T12:04:37;99352.91;;;21.03;49.71
21109;BME280;10712;52.944;9.098;2023-03-31T12:07:32;99335.44;;;21.06;49.10
21109;BME280;10712;52.944;9.098;2023-03-31T12:10:22;99337.25;;;20.99;49.15
21109;BME280;10712;52.944;9.098;2023-03-31T12:13:22;99337.97;;;21.07;49.67
21109;BME280;10712;52.944;9.098;2023-03-31T12:16:07;99324.44;;;21.07;49.39
21109;BME280;10712;52.944;9.098;2023-03-31T12:21:48;99322.50;;;21.01;49.26
21109;BME280;10712;52.944;9.098;2023-03-31T12:24:15;99320.03;;;21.06;49.71
21109;BME280;10712;52.944;9.098;2023-03-31T12:27:13;99325.81;;;21.03;49.79
21109;BME280;10712;52.944;9.098;2023-03-31T12:30:04;99319.28;;;21.12;49.41
21109;BME280;10712;52.944;9.098;2023-03-31T12:32:40;99313.50;;;21.15;48.86
21109;BME280;10712;52.944;9.098;2023-03-31T12:35:26;99312.34;;;21.25;49.46
21109;BME280;10712;52.944;9.098;2023-03-31T12:38:28;99311.81;;;21.14;49.18
21109;BME280;10712;52.944;9.098;2023-03-31T12:41:16;99314.81;;;21.19;49.98
21109;BME280;10712;52.944;9.098;2023-03-31T12:49:42;99319.78;;;21.01;49.70
21109;BME280;10712;52.944;9.098;2023-03-31T12:52:50;99309.22;;;21.06;49.51
21109;BME280;10712;52.944;9.098;2023-03-31T12:55:35;99308.44;;;21.12;49.41
21109;BME280;10712;52.944;9.098;2023-03-31T13:01:21;99309.47;;;21.11;49.85
21109;BME280;10712;52.944;9.098;2023-03-31T13:04:19;99316.16;;;20.94;49.45
21109;BME280;10712;52.944;9.098;2023-03-31T13:06:55;99302.88;;;20.99;49.32
21109;BME280;10712;52.944;9.098;2023-03-31T13:09:44;99300.69;;;20.88;49.65
21109;BME280;10712;52.944;9.098;2023-03-31T13:12:17;99295.97;;;20.97;49.53
21109;BME280;10712;52.944;9.098;2023-03-31T13:14:47;99288.63;;;20.91;49.66
21109;BME280;10712;52.944;9.098;2023-03-31T13:17:31;99291.22;;;20.99;49.34
21109;BME280;10712;52.944;9.098;2023-03-31T13:21:01;99291.09;;;21.21;48.40
21109;BME280;10712;52.944;9.098;2023-03-31T13:23:34;99289.13;;;21.15;48.48
21109;BME280;10712;52.944;9.098;2023-03-31T13:26:01;99286.59;;;21.14;48.05
21109;BME280;10712;52.944;9.098;2023-03-31T13:28:37;99280.44;;;21.05;48.41
21109;BME280;10712;52.944;9.098;2023-03-31T13:31:09;99281.09;;;21.07;48.47
21109;BME280;10712;52.944;9.098;2023-03-31T13:33:41;99277.63;;;21.13;48.72
21109;BME280;10712;52.944;9.098;2023-03-31T13:45:35;99274.16;;;21.41;47.91
21109;BME280;10712;52.944;9.098;2023-03-31T13:48:28;99273.19;;;21.48;48.04
21109;BME280;10712;52.944;9.098;2023-03-31T13:51:22;99270.09;;;21.51;47.74
21109;BME280;10712;52.944;9.098;2023-03-31T13:57:19;99266.81;;;21.56;46.94
21109;BME280;10712;52.944;9.098;2023-03-31T14:06:25;99272.53;;;21.46;47.44
21109;BME280;10712;52.944;9.098;2023-03-31T14:09:10;99261.13;;;21.51;47.74
21109;BME280;10712;52.944;9.098;2023-03-31T14:11:38;99278.81;;;21.47;47.49
21109;BME280;10712;52.944;9.098;2023-03-31T14:14:24;99270.75;;;21.32;47.69
21109;BME280;10712;52.944;9.098;2023-03-31T14:16:55;99283.97;;;21.42;48.20
21109;BME280;10712;52.944;9.098;2023-03-31T14:25:34;99270.91;;;21.09;49.25
21109;BME280;10712;52.944;9.098;2023-03-31T14:28:53;99269.19;;;21.02;49.33
21109;BME280;10712;52.944;9.098;2023-03-31T14:37:19;99264.44;;;20.89;50.66
21109;BME280;10712;52.944;9.098;2023-03-31T14:39:54;99269.41;;;20.86;50.93
21109;BME280;10712;52.944;9.098;2023-03-31T14:42:40;99266.38;;;20.95;51.09
21109;BME280;10712;52.944;9.098;2023-03-31T14:45:22;99266.81;;;20.77;51.46
21109;BME280;10712;52.944;9.098;2023-03-31T14:50:21;99261.09;;;20.87;51.95
21109;BME280;10712;52.944;9.098;2023-03-31T14:52:52;99267.81;;;20.91;51.80
21109;BME280;10712;52.944;9.098;2023-03-31T14:55:25;99258.66;;;20.92;52.04
21109;BME280;10712;52.944;9.098;2023-03-31T14:57:54;99263.00;;;21.08;51.91
21109;BME280;10712;52.944;9.098;2023-03-31T15:00:30;99261.47;;;21.20;52.28
21109;BME280;10712;52.944;9.098;2023-03-31T15:02:59;99262.13;;;21.22;51.96
21109;BME280;10712;52.944;9.098;2023-03-31T15:05:35;99260.63;;;21.19;52.37
21109;BME280;10712;52.944;9.098;2023-03-31T15:08:06;99257.19;;;21.32;52.74
21109;BME280;10712;52.944;9.098;2023-03-31T15:10:40;99254.44;;;21.26;52.62
21109;BME280;10712;52.944;9.098;2023-03-31T15:13:10;99251.59;;;21.34;52.42
21109;BME280;10712;52.944;9.098;2023-03-31T15:15:37;99258.69;;;21.35;52.15
21109;BME280;10712;52.944;9.098;2023-03-31T15:18:02;99256.63;;;21.37;52.31
21109;BME280;10712;52.944;9.098;2023-03-31T15:20:34;99258.28;;;21.38;51.30
21109;BME280;10712;52.944;9.098;2023-03-31T15:23:02;99256.31;;;21.25;51.59
21109;BME280;10712;52.944;9.098;2023-03-31T15:25:38;99257.03;;;21.34;51.60